Chicago, Illinois
Traffic Map
Current Weather Conditions
Chicago, Illinois
Few Clouds Haze
Few Clouds
12°
Feels Like: 12°
Wind Chill: 12° Ceiling: Unl
Heat Index: 12° Visibility: 5mi
Dew Point: 10° Wind: 5mph
Humidity: 86% Direction: 230° (SW)
Pressure: 29.85in Gusts: 0mph
Raw Report DataKMDW 220653Z 23004KT 5SM BR FEW027 12/10 A2985 RMK AO2 SLP105 T01220100
Traffic Incident Summary
Active as of:
Severity:
Category:
InformationThere was an issue retrieving the traffic information for this location. Please try a different location or try again shortly.
Advertisements
Track Severe Weather on mobile